sensor_id;sensor_type;location;lat;lon;timestamp;P1;durP1;ratioP1;P2;durP2;ratioP2
60292;SDS011;52402;52.670;6.750;2023-01-31T00:01:09;25.48;;;4.47;;
60292;SDS011;52402;52.670;6.750;2023-01-31T00:03:59;28.50;;;5.07;;
60292;SDS011;52402;52.670;6.750;2023-01-31T00:08:56;31.75;;;5.35;;
60292;SDS011;52402;52.670;6.750;2023-01-31T00:11:23;26.80;;;5.13;;
60292;SDS011;52402;52.670;6.750;2023-01-31T00:13:51;34.88;;;9.77;;
60292;SDS011;52402;52.670;6.750;2023-01-31T00:16:17;32.40;;;6.32;;
60292;SDS011;52402;52.670;6.750;2023-01-31T00:18:43;26.10;;;6.03;;
60292;SDS011;52402;52.670;6.750;2023-01-31T00:21:17;27.05;;;6.30;;
60292;SDS011;52402;52.670;6.750;2023-01-31T00:23:45;32.28;;;6.65;;
60292;SDS011;52402;52.670;6.750;2023-01-31T00:26:16;27.90;;;6.00;;
60292;SDS011;52402;52.670;6.750;2023-01-31T00:28:47;23.75;;;4.93;;
60292;SDS011;52402;52.670;6.750;2023-01-31T00:31:14;27.70;;;5.18;;
60292;SDS011;52402;52.670;6.750;2023-01-31T00:33:41;29.25;;;5.55;;
60292;SDS011;52402;52.670;6.750;2023-01-31T00:36:10;31.23;;;5.45;;
60292;SDS011;52402;52.670;6.750;2023-01-31T00:38:38;30.02;;;5.75;;
60292;SDS011;52402;52.670;6.750;2023-01-31T00:41:04;26.00;;;5.72;;
60292;SDS011;52402;52.670;6.750;2023-01-31T00:43:30;27.38;;;5.18;;
60292;SDS011;52402;52.670;6.750;2023-01-31T00:45:56;16.80;;;1.40;;
60292;SDS011;52402;52.670;6.750;2023-01-31T00:48:23;30.52;;;5.07;;
60292;SDS011;52402;52.670;6.750;2023-01-31T00:50:49;26.73;;;4.63;;
60292;SDS011;52402;52.670;6.750;2023-01-31T00:53:15;26.45;;;5.32;;
60292;SDS011;52402;52.670;6.750;2023-01-31T00:55:43;11.70;;;2.30;;
60292;SDS011;52402;52.670;6.750;2023-01-31T00:58:09;24.58;;;4.45;;
60292;SDS011;52402;52.670;6.750;2023-01-31T01:00:34;27.63;;;4.65;;
60292;SDS011;52402;52.670;6.750;2023-01-31T01:03:00;28.60;;;4.97;;
60292;SDS011;52402;52.670;6.750;2023-01-31T01:05:25;31.23;;;5.45;;
60292;SDS011;52402;52.670;6.750;2023-01-31T01:07:51;24.77;;;4.47;;
60292;SDS011;52402;52.670;6.750;2023-01-31T01:10:17;23.63;;;4.53;;
60292;SDS011;52402;52.670;6.750;2023-01-31T01:12:42;27.35;;;4.65;;
60292;SDS011;52402;52.670;6.750;2023-01-31T01:15:08;25.40;;;4.97;;
60292;SDS011;52402;52.670;6.750;2023-01-31T01:17:34;24.33;;;4.20;;
60292;SDS011;52402;52.670;6.750;2023-01-31T01:19:59;25.00;;;4.63;;
60292;SDS011;52402;52.670;6.750;2023-01-31T01:22:28;23.75;;;4.60;;
60292;SDS011;52402;52.670;6.750;2023-01-31T01:24:54;29.13;;;5.07;;
60292;SDS011;52402;52.670;6.750;2023-01-31T01:27:19;23.20;;;4.50;;
60292;SDS011;52402;52.670;6.750;2023-01-31T01:29:45;7.25;;;1.40;;
60292;SDS011;52402;52.670;6.750;2023-01-31T01:32:11;23.30;;;4.80;;
60292;SDS011;52402;52.670;6.750;2023-01-31T01:34:36;23.38;;;4.82;;
60292;SDS011;52402;52.670;6.750;2023-01-31T01:37:02;21.67;;;4.70;;
60292;SDS011;52402;52.670;6.750;2023-01-31T01:39:36;22.58;;;4.90;;
60292;SDS011;52402;52.670;6.750;2023-01-31T01:42:02;25.42;;;4.38;;
60292;SDS011;52402;52.670;6.750;2023-01-31T01:49:55;21.83;;;4.68;;
60292;SDS011;52402;52.670;6.750;2023-01-31T01:52:27;21.40;;;4.03;;
60292;SDS011;52402;52.670;6.750;2023-01-31T01:54:57;23.80;;;3.95;;
60292;SDS011;52402;52.670;6.750;2023-01-31T01:57:30;21.25;;;4.45;;
60292;SDS011;52402;52.670;6.750;2023-01-31T02:00:13;26.25;;;5.35;;
60292;SDS011;52402;52.670;6.750;2023-01-31T02:02:43;19.42;;;4.43;;
60292;SDS011;52402;52.670;6.750;2023-01-31T02:05:11;23.48;;;4.60;;
60292;SDS011;52402;52.670;6.750;2023-01-31T02:07:39;19.67;;;4.00;;
60292;SDS011;52402;52.670;6.750;2023-01-31T02:10:10;23.17;;;4.55;;
60292;SDS011;52402;52.670;6.750;2023-01-31T02:12:43;18.10;;;3.75;;
60292;SDS011;52402;52.670;6.750;2023-01-31T02:15:10;25.52;;;4.53;;
60292;SDS011;52402;52.670;6.750;2023-01-31T02:17:35;22.67;;;4.55;;
60292;SDS011;52402;52.670;6.750;2023-01-31T02:25:34;18.48;;;3.95;;
60292;SDS011;52402;52.670;6.750;2023-01-31T02:28:19;19.92;;;4.20;;
60292;SDS011;52402;52.670;6.750;2023-01-31T02:34:15;16.38;;;4.05;;
60292;SDS011;52402;52.670;6.750;2023-01-31T02:36:50;21.55;;;4.47;;
60292;SDS011;52402;52.670;6.750;2023-01-31T02:44:44;26.88;;;4.47;;
60292;SDS011;52402;52.670;6.750;2023-01-31T02:47:28;22.05;;;4.60;;
60292;SDS011;52402;52.670;6.750;2023-01-31T02:52:47;27.55;;;4.85;;
60292;SDS011;52402;52.670;6.750;2023-01-31T02:58:28;20.35;;;3.95;;
60292;SDS011;52402;52.670;6.750;2023-01-31T03:00:57;21.63;;;4.38;;
60292;SDS011;52402;52.670;6.750;2023-01-31T03:03:28;26.05;;;4.10;;
60292;SDS011;52402;52.670;6.750;2023-01-31T03:08:47;20.45;;;3.70;;
60292;SDS011;52402;52.670;6.750;2023-01-31T03:11:17;19.88;;;4.57;;
60292;SDS011;52402;52.670;6.750;2023-01-31T03:13:46;21.70;;;4.43;;
60292;SDS011;52402;52.670;6.750;2023-01-31T03:16:36;21.42;;;4.20;;
60292;SDS011;52402;52.670;6.750;2023-01-31T03:22:53;20.17;;;4.35;;
60292;SDS011;52402;52.670;6.750;2023-01-31T03:25:23;25.70;;;4.70;;
60292;SDS011;52402;52.670;6.750;2023-01-31T03:27:52;23.27;;;4.88;;
60292;SDS011;52402;52.670;6.750;2023-01-31T03:33:16;23.00;;;4.38;;
60292;SDS011;52402;52.670;6.750;2023-01-31T03:35:45;20.70;;;4.60;;
60292;SDS011;52402;52.670;6.750;2023-01-31T03:38:20;18.77;;;4.25;;
60292;SDS011;52402;52.670;6.750;2023-01-31T03:40:57;20.70;;;4.50;;
60292;SDS011;52402;52.670;6.750;2023-01-31T03:43:53;22.83;;;4.35;;
60292;SDS011;52402;52.670;6.750;2023-01-31T03:46:36;23.02;;;4.40;;
60292;SDS011;52402;52.670;6.750;2023-01-31T03:49:08;20.83;;;4.10;;
60292;SDS011;52402;52.670;6.750;2023-01-31T03:51:37;20.67;;;4.10;;
60292;SDS011;52402;52.670;6.750;2023-01-31T03:54:19;21.27;;;4.70;;
60292;SDS011;52402;52.670;6.750;2023-01-31T03:56:52;18.73;;;4.28;;
60292;SDS011;52402;52.670;6.750;2023-01-31T03:59:27;21.77;;;4.18;;
60292;SDS011;52402;52.670;6.750;2023-01-31T04:01:58;20.33;;;4.55;;
60292;SDS011;52402;52.670;6.750;2023-01-31T04:06:57;20.13;;;4.50;;
60292;SDS011;52402;52.670;6.750;2023-01-31T04:09:24;25.20;;;5.25;;
60292;SDS011;52402;52.670;6.750;2023-01-31T04:11:50;19.90;;;3.97;;
60292;SDS011;52402;52.670;6.750;2023-01-31T04:14:16;17.75;;;4.72;;
60292;SDS011;52402;52.670;6.750;2023-01-31T04:16:42;26.35;;;5.85;;
60292;SDS011;52402;52.670;6.750;2023-01-31T04:19:08;23.42;;;5.38;;
60292;SDS011;52402;52.670;6.750;2023-01-31T04:21:33;20.15;;;4.55;;
60292;SDS011;52402;52.670;6.750;2023-01-31T04:23:59;22.05;;;4.63;;
60292;SDS011;52402;52.670;6.750;2023-01-31T04:26:24;24.23;;;4.72;;
60292;SDS011;52402;52.670;6.750;2023-01-31T04:28:50;23.63;;;4.57;;
60292;SDS011;52402;52.670;6.750;2023-01-31T04:31:16;23.35;;;5.03;;
60292;SDS011;52402;52.670;6.750;2023-01-31T04:33:42;24.02;;;4.82;;
60292;SDS011;52402;52.670;6.750;2023-01-31T04:36:08;21.45;;;4.70;;
60292;SDS011;52402;52.670;6.750;2023-01-31T04:38:34;20.85;;;4.88;;
60292;SDS011;52402;52.670;6.750;2023-01-31T04:40:59;22.95;;;5.28;;
60292;SDS011;52402;52.670;6.750;2023-01-31T04:43:25;21.35;;;5.63;;
60292;SDS011;52402;52.670;6.750;2023-01-31T04:45:51;24.75;;;6.15;;
60292;SDS011;52402;52.670;6.750;2023-01-31T04:48:16;23.98;;;5.40;;
60292;SDS011;52402;52.670;6.750;2023-01-31T04:50:42;22.60;;;6.00;;
60292;SDS011;52402;52.670;6.750;2023-01-31T04:53:08;26.80;;;6.25;;
60292;SDS011;52402;52.670;6.750;2023-01-31T04:55:34;23.40;;;5.78;;
60292;SDS011;52402;52.670;6.750;2023-01-31T04:58:00;23.55;;;5.80;;
60292;SDS011;52402;52.670;6.750;2023-01-31T05:00:25;26.65;;;5.90;;
60292;SDS011;52402;52.670;6.750;2023-01-31T05:02:52;26.38;;;6.85;;
60292;SDS011;52402;52.670;6.750;2023-01-31T05:05:18;27.23;;;6.43;;
60292;SDS011;52402;52.670;6.750;2023-01-31T05:07:44;28.42;;;6.82;;
60292;SDS011;52402;52.670;6.750;2023-01-31T05:10:10;24.35;;;6.32;;
60292;SDS011;52402;52.670;6.750;2023-01-31T05:12:36;31.27;;;6.80;;
60292;SDS011;52402;52.670;6.750;2023-01-31T05:15:03;24.92;;;6.45;;
60292;SDS011;52402;52.670;6.750;2023-01-31T05:17:31;28.42;;;8.00;;
60292;SDS011;52402;52.670;6.750;2023-01-31T05:19:57;29.23;;;8.32;;
60292;SDS011;52402;52.670;6.750;2023-01-31T05:22:23;25.48;;;7.03;;
60292;SDS011;52402;52.670;6.750;2023-01-31T05:24:49;24.98;;;6.93;;
60292;SDS011;52402;52.670;6.750;2023-01-31T05:27:16;24.77;;;7.05;;
60292;SDS011;52402;52.670;6.750;2023-01-31T05:29:42;32.33;;;8.30;;
60292;SDS011;52402;52.670;6.750;2023-01-31T05:32:09;25.25;;;8.05;;
60292;SDS011;52402;52.670;6.750;2023-01-31T05:34:34;24.00;;;7.25;;
60292;SDS011;52402;52.670;6.750;2023-01-31T05:37:00;31.23;;;7.45;;
60292;SDS011;52402;52.670;6.750;2023-01-31T05:39:27;32.60;;;8.70;;
60292;SDS011;52402;52.670;6.750;2023-01-31T05:41:53;31.48;;;9.35;;
60292;SDS011;52402;52.670;6.750;2023-01-31T05:44:19;28.58;;;9.20;;
60292;SDS011;52402;52.670;6.750;2023-01-31T05:46:45;28.42;;;9.00;;
60292;SDS011;52402;52.670;6.750;2023-01-31T05:49:11;26.45;;;8.75;;
60292;SDS011;52402;52.670;6.750;2023-01-31T05:51:37;26.65;;;9.45;;
60292;SDS011;52402;52.670;6.750;2023-01-31T05:54:03;33.60;;;9.77;;
60292;SDS011;52402;52.670;6.750;2023-01-31T05:56:28;30.83;;;9.57;;
60292;SDS011;52402;52.670;6.750;2023-01-31T05:58:54;30.05;;;10.07;;
60292;SDS011;52402;52.670;6.750;2023-01-31T06:01:21;30.52;;;9.90;;
60292;SDS011;52402;52.670;6.750;2023-01-31T06:03:48;37.85;;;10.95;;
60292;SDS011;52402;52.670;6.750;2023-01-31T06:06:14;29.58;;;10.07;;
60292;SDS011;52402;52.670;6.750;2023-01-31T06:08:40;33.85;;;11.60;;
60292;SDS011;52402;52.670;6.750;2023-01-31T06:11:06;32.30;;;11.35;;
60292;SDS011;52402;52.670;6.750;2023-01-31T06:13:32;33.70;;;11.85;;
60292;SDS011;52402;52.670;6.750;2023-01-31T06:15:58;34.75;;;11.43;;
60292;SDS011;52402;52.670;6.750;2023-01-31T06:18:24;43.97;;;12.77;;
60292;SDS011;52402;52.670;6.750;2023-01-31T06:20:50;36.35;;;12.95;;
60292;SDS011;52402;52.670;6.750;2023-01-31T06:23:16;38.72;;;13.43;;
60292;SDS011;52402;52.670;6.750;2023-01-31T06:25:42;36.55;;;13.63;;
60292;SDS011;52402;52.670;6.750;2023-01-31T06:28:08;34.70;;;13.25;;
60292;SDS011;52402;52.670;6.750;2023-01-31T06:30:35;39.97;;;14.02;;
60292;SDS011;52402;52.670;6.750;2023-01-31T06:33:01;37.30;;;13.45;;
60292;SDS011;52402;52.670;6.750;2023-01-31T06:35:26;35.15;;;13.23;;
60292;SDS011;52402;52.670;6.750;2023-01-31T06:37:53;33.72;;;13.18;;
60292;SDS011;52402;52.670;6.750;2023-01-31T06:40:19;39.67;;;14.73;;
60292;SDS011;52402;52.670;6.750;2023-01-31T06:42:46;35.35;;;13.50;;
60292;SDS011;52402;52.670;6.750;2023-01-31T06:45:11;36.63;;;13.55;;
60292;SDS011;52402;52.670;6.750;2023-01-31T06:47:37;38.03;;;14.23;;
60292;SDS011;52402;52.670;6.750;2023-01-31T06:50:03;37.10;;;13.40;;
60292;SDS011;52402;52.670;6.750;2023-01-31T06:52:29;33.50;;;13.48;;
60292;SDS011;52402;52.670;6.750;2023-01-31T06:54:54;34.88;;;13.25;;
60292;SDS011;52402;52.670;6.750;2023-01-31T06:57:20;34.65;;;13.43;;
60292;SDS011;52402;52.670;6.750;2023-01-31T06:59:45;36.47;;;13.23;;
60292;SDS011;52402;52.670;6.750;2023-01-31T07:02:11;31.75;;;13.77;;
60292;SDS011;52402;52.670;6.750;2023-01-31T07:04:36;34.25;;;12.38;;
60292;SDS011;52402;52.670;6.750;2023-01-31T07:07:02;38.33;;;12.48;;
60292;SDS011;52402;52.670;6.750;2023-01-31T07:09:28;34.40;;;12.73;;
60292;SDS011;52402;52.670;6.750;2023-01-31T07:11:54;29.58;;;11.98;;
60292;SDS011;52402;52.670;6.750;2023-01-31T07:14:19;32.08;;;11.45;;
60292;SDS011;52402;52.670;6.750;2023-01-31T07:16:45;30.38;;;10.35;;
60292;SDS011;52402;52.670;6.750;2023-01-31T07:19:10;30.42;;;11.73;;
60292;SDS011;52402;52.670;6.750;2023-01-31T07:21:36;32.60;;;10.80;;
60292;SDS011;52402;52.670;6.750;2023-01-31T07:24:02;29.55;;;10.45;;
60292;SDS011;52402;52.670;6.750;2023-01-31T07:26:28;29.85;;;10.60;;
60292;SDS011;52402;52.670;6.750;2023-01-31T07:28:54;29.58;;;9.60;;
60292;SDS011;52402;52.670;6.750;2023-01-31T07:31:21;27.63;;;9.20;;
60292;SDS011;52402;52.670;6.750;2023-01-31T07:33:46;28.05;;;9.25;;
60292;SDS011;52402;52.670;6.750;2023-01-31T07:36:13;29.85;;;9.23;;
60292;SDS011;52402;52.670;6.750;2023-01-31T07:38:39;32.53;;;10.43;;
60292;SDS011;52402;52.670;6.750;2023-01-31T07:41:05;24.88;;;8.38;;
60292;SDS011;52402;52.670;6.750;2023-01-31T07:43:32;27.17;;;8.13;;
60292;SDS011;52402;52.670;6.750;2023-01-31T07:45:58;25.77;;;8.43;;
60292;SDS011;52402;52.670;6.750;2023-01-31T07:48:24;24.00;;;8.70;;
60292;SDS011;52402;52.670;6.750;2023-01-31T07:50:57;26.35;;;8.32;;
60292;SDS011;52402;52.670;6.750;2023-01-31T07:53:25;27.50;;;7.85;;
60292;SDS011;52402;52.670;6.750;2023-01-31T07:56:03;22.45;;;7.63;;
60292;SDS011;52402;52.670;6.750;2023-01-31T07:58:34;29.13;;;9.90;;
60292;SDS011;52402;52.670;6.750;2023-01-31T08:01:00;23.60;;;7.50;;
60292;SDS011;52402;52.670;6.750;2023-01-31T08:03:44;24.58;;;7.93;;
60292;SDS011;52402;52.670;6.750;2023-01-31T08:06:11;28.60;;;8.55;;
60292;SDS011;52402;52.670;6.750;2023-01-31T08:08:37;27.15;;;8.18;;
60292;SDS011;52402;52.670;6.750;2023-01-31T08:11:04;28.00;;;8.63;;
60292;SDS011;52402;52.670;6.750;2023-01-31T08:13:31;27.45;;;8.48;;
60292;SDS011;52402;52.670;6.750;2023-01-31T08:15:57;27.48;;;8.82;;
60292;SDS011;52402;52.670;6.750;2023-01-31T08:18:24;25.52;;;8.68;;
60292;SDS011;52402;52.670;6.750;2023-01-31T08:20:49;27.20;;;8.75;;
60292;SDS011;52402;52.670;6.750;2023-01-31T08:23:15;25.25;;;8.52;;
60292;SDS011;52402;52.670;6.750;2023-01-31T08:25:41;26.83;;;8.73;;
60292;SDS011;52402;52.670;6.750;2023-01-31T08:28:07;27.13;;;8.30;;
60292;SDS011;52402;52.670;6.750;2023-01-31T08:30:33;24.67;;;9.07;;
60292;SDS011;52402;52.670;6.750;2023-01-31T08:32:59;26.42;;;9.10;;
60292;SDS011;52402;52.670;6.750;2023-01-31T08:35:25;25.17;;;8.02;;
60292;SDS011;52402;52.670;6.750;2023-01-31T08:37:52;23.15;;;8.18;;
60292;SDS011;52402;52.670;6.750;2023-01-31T08:40:17;27.83;;;8.40;;
60292;SDS011;52402;52.670;6.750;2023-01-31T08:42:43;21.15;;;7.90;;
60292;SDS011;52402;52.670;6.750;2023-01-31T08:45:17;22.05;;;7.25;;
60292;SDS011;52402;52.670;6.750;2023-01-31T08:47:42;27.70;;;8.85;;
60292;SDS011;52402;52.670;6.750;2023-01-31T08:50:08;26.05;;;8.55;;
60292;SDS011;52402;52.670;6.750;2023-01-31T08:52:34;23.60;;;8.45;;
60292;SDS011;52402;52.670;6.750;2023-01-31T08:55:00;19.63;;;8.10;;
60292;SDS011;52402;52.670;6.750;2023-01-31T08:57:27;23.13;;;9.38;;
60292;SDS011;52402;52.670;6.750;2023-01-31T08:59:53;24.67;;;9.93;;
60292;SDS011;52402;52.670;6.750;2023-01-31T09:02:19;24.35;;;9.25;;
60292;SDS011;52402;52.670;6.750;2023-01-31T09:04:45;27.40;;;9.40;;
60292;SDS011;52402;52.670;6.750;2023-01-31T09:07:10;23.90;;;9.82;;
60292;SDS011;52402;52.670;6.750;2023-01-31T09:09:36;30.33;;;11.43;;
60292;SDS011;52402;52.670;6.750;2023-01-31T09:12:02;27.20;;;9.85;;
60292;SDS011;52402;52.670;6.750;2023-01-31T09:14:28;26.90;;;10.88;;
60292;SDS011;52402;52.670;6.750;2023-01-31T09:16:55;25.05;;;10.77;;
60292;SDS011;52402;52.670;6.750;2023-01-31T09:19:21;20.80;;;9.10;;
60292;SDS011;52402;52.670;6.750;2023-01-31T09:21:47;23.10;;;8.98;;
60292;SDS011;52402;52.670;6.750;2023-01-31T09:24:13;20.35;;;8.45;;
60292;SDS011;52402;52.670;6.750;2023-01-31T09:26:38;21.98;;;9.90;;
60292;SDS011;52402;52.670;6.750;2023-01-31T09:29:04;22.15;;;9.23;;
60292;SDS011;52402;52.670;6.750;2023-01-31T09:31:30;23.02;;;7.65;;
60292;SDS011;52402;52.670;6.750;2023-01-31T09:33:56;22.35;;;7.95;;
60292;SDS011;52402;52.670;6.750;2023-01-31T09:36:22;20.60;;;7.93;;
60292;SDS011;52402;52.670;6.750;2023-01-31T09:38:55;19.10;;;7.47;;
60292;SDS011;52402;52.670;6.750;2023-01-31T09:41:32;22.65;;;8.15;;
60292;SDS011;52402;52.670;6.750;2023-01-31T09:44:10;23.80;;;7.20;;
60292;SDS011;52402;52.670;6.750;2023-01-31T09:46:38;18.00;;;6.95;;
60292;SDS011;52402;52.670;6.750;2023-01-31T09:49:08;21.33;;;6.82;;
60292;SDS011;52402;52.670;6.750;2023-01-31T09:51:39;20.83;;;6.50;;
60292;SDS011;52402;52.670;6.750;2023-01-31T09:54:07;17.77;;;6.60;;
60292;SDS011;52402;52.670;6.750;2023-01-31T09:56:41;21.27;;;6.25;;
60292;SDS011;52402;52.670;6.750;2023-01-31T09:59:22;22.02;;;6.43;;
60292;SDS011;52402;52.670;6.750;2023-01-31T10:01:58;19.80;;;6.28;;
60292;SDS011;52402;52.670;6.750;2023-01-31T10:05:01;21.75;;;6.50;;
60292;SDS011;52402;52.670;6.750;2023-01-31T10:07:58;16.90;;;6.25;;
60292;SDS011;52402;52.670;6.750;2023-01-31T10:13:51;21.63;;;7.25;;
60292;SDS011;52402;52.670;6.750;2023-01-31T10:18:35;20.73;;;6.75;;
60292;SDS011;52402;52.670;6.750;2023-01-31T10:21:06;19.20;;;6.55;;
60292;SDS011;52402;52.670;6.750;2023-01-31T10:23:41;21.05;;;7.63;;
60292;SDS011;52402;52.670;6.750;2023-01-31T10:26:24;18.80;;;6.03;;
60292;SDS011;52402;52.670;6.750;2023-01-31T10:28:59;22.10;;;6.55;;
60292;SDS011;52402;52.670;6.750;2023-01-31T10:31:31;18.85;;;6.07;;
60292;SDS011;52402;52.670;6.750;2023-01-31T10:34:05;23.73;;;6.50;;
60292;SDS011;52402;52.670;6.750;2023-01-31T10:36:35;21.45;;;6.13;;
60292;SDS011;52402;52.670;6.750;2023-01-31T10:44:14;20.20;;;5.63;;
60292;SDS011;52402;52.670;6.750;2023-01-31T10:46:56;20.88;;;6.30;;
60292;SDS011;52402;52.670;6.750;2023-01-31T10:49:23;19.88;;;7.10;;
60292;SDS011;52402;52.670;6.750;2023-01-31T10:51:55;19.52;;;6.40;;
60292;SDS011;52402;52.670;6.750;2023-01-31T10:57:19;23.48;;;6.93;;
60292;SDS011;52402;52.670;6.750;2023-01-31T10:59:45;18.60;;;6.35;;
60292;SDS011;52402;52.670;6.750;2023-01-31T11:02:15;15.98;;;5.40;;
60292;SDS011;52402;52.670;6.750;2023-01-31T11:04:54;19.67;;;5.70;;
60292;SDS011;52402;52.670;6.750;2023-01-31T11:07:23;19.48;;;5.97;;
60292;SDS011;52402;52.670;6.750;2023-01-31T11:12:18;21.67;;;7.43;;
60292;SDS011;52402;52.670;6.750;2023-01-31T11:14:57;20.75;;;8.13;;
60292;SDS011;52402;52.670;6.750;2023-01-31T11:17:30;23.10;;;8.27;;
60292;SDS011;52402;52.670;6.750;2023-01-31T11:20:00;24.45;;;9.55;;
60292;SDS011;52402;52.670;6.750;2023-01-31T11:22:32;27.33;;;10.70;;
60292;SDS011;52402;52.670;6.750;2023-01-31T11:25:01;23.33;;;10.32;;
60292;SDS011;52402;52.670;6.750;2023-01-31T11:27:41;27.50;;;12.20;;
60292;SDS011;52402;52.670;6.750;2023-01-31T11:30:50;22.57;;;10.00;;
60292;SDS011;52402;52.670;6.750;2023-01-31T11:32:59;25.02;;;10.77;;
60292;SDS011;52402;52.670;6.750;2023-01-31T11:35:43;24.73;;;11.50;;
60292;SDS011;52402;52.670;6.750;2023-01-31T11:38:21;25.65;;;11.52;;
60292;SDS011;52402;52.670;6.750;2023-01-31T11:40:47;26.95;;;11.45;;
60292;SDS011;52402;52.670;6.750;2023-01-31T11:45:45;28.20;;;12.43;;
60292;SDS011;52402;52.670;6.750;2023-01-31T11:48:20;25.23;;;12.30;;
60292;SDS011;52402;52.670;6.750;2023-01-31T11:50:53;26.20;;;12.02;;
60292;SDS011;52402;52.670;6.750;2023-01-31T11:53:32;27.42;;;12.18;;
60292;SDS011;52402;52.670;6.750;2023-01-31T11:58:42;23.42;;;12.65;;
60292;SDS011;52402;52.670;6.750;2023-01-31T12:03:47;26.48;;;12.98;;
60292;SDS011;52402;52.670;6.750;2023-01-31T12:06:29;27.77;;;13.02;;
60292;SDS011;52402;52.670;6.750;2023-01-31T12:09:01;30.98;;;15.27;;
60292;SDS011;52402;52.670;6.750;2023-01-31T12:11:29;28.48;;;14.38;;
60292;SDS011;52402;52.670;6.750;2023-01-31T12:14:21;28.65;;;12.68;;
60292;SDS011;52402;52.670;6.750;2023-01-31T12:16:48;27.08;;;11.90;;
60292;SDS011;52402;52.670;6.750;2023-01-31T12:19:30;32.95;;;13.35;;
60292;SDS011;52402;52.670;6.750;2023-01-31T12:25:01;25.00;;;12.43;;
60292;SDS011;52402;52.670;6.750;2023-01-31T12:30:38;26.70;;;11.80;;
60292;SDS011;52402;52.670;6.750;2023-01-31T12:42:08;24.23;;;10.90;;
60292;SDS011;52402;52.670;6.750;2023-01-31T12:44:50;28.33;;;9.95;;
60292;SDS011;52402;52.670;6.750;2023-01-31T12:53:19;26.55;;;8.82;;
60292;SDS011;52402;52.670;6.750;2023-01-31T13:06:56;21.35;;;7.78;;
60292;SDS011;52402;52.670;6.750;2023-01-31T13:09:30;20.13;;;6.70;;
60292;SDS011;52402;52.670;6.750;2023-01-31T13:12:03;20.10;;;6.40;;
60292;SDS011;52402;52.670;6.750;2023-01-31T13:14:30;19.90;;;6.28;;
60292;SDS011;52402;52.670;6.750;2023-01-31T13:17:01;21.15;;;6.38;;
60292;SDS011;52402;52.670;6.750;2023-01-31T13:19:45;18.52;;;5.63;;
60292;SDS011;52402;52.670;6.750;2023-01-31T13:22:21;20.88;;;7.10;;
60292;SDS011;52402;52.670;6.750;2023-01-31T13:27:57;17.95;;;5.32;;
60292;SDS011;52402;52.670;6.750;2023-01-31T13:32:54;18.10;;;5.85;;
60292;SDS011;52402;52.670;6.750;2023-01-31T13:35:25;17.55;;;5.20;;
60292;SDS011;52402;52.670;6.750;2023-01-31T13:37:58;19.42;;;5.70;;
60292;SDS011;52402;52.670;6.750;2023-01-31T13:40:28;14.90;;;4.50;;
60292;SDS011;52402;52.670;6.750;2023-01-31T13:42:58;15.95;;;4.75;;
60292;SDS011;52402;52.670;6.750;2023-01-31T13:45:28;17.98;;;5.35;;
60292;SDS011;52402;52.670;6.750;2023-01-31T13:47:59;21.70;;;4.75;;
60292;SDS011;52402;52.670;6.750;2023-01-31T13:53:03;14.18;;;4.45;;
60292;SDS011;52402;52.670;6.750;2023-01-31T13:55:37;16.88;;;5.60;;
60292;SDS011;52402;52.670;6.750;2023-01-31T13:58:12;18.85;;;5.68;;
60292;SDS011;52402;52.670;6.750;2023-01-31T14:00:43;17.13;;;5.90;;
60292;SDS011;52402;52.670;6.750;2023-01-31T14:03:17;17.95;;;4.65;;
60292;SDS011;52402;52.670;6.750;2023-01-31T14:13:47;17.92;;;5.25;;
60292;SDS011;52402;52.670;6.750;2023-01-31T14:16:32;16.20;;;4.95;;
60292;SDS011;52402;52.670;6.750;2023-01-31T14:22:02;19.52;;;5.28;;
60292;SDS011;52402;52.670;6.750;2023-01-31T14:27:23;16.38;;;4.78;;
60292;SDS011;52402;52.670;6.750;2023-01-31T14:35:01;16.60;;;4.43;;
60292;SDS011;52402;52.670;6.750;2023-01-31T14:40:21;19.40;;;5.03;;
60292;SDS011;52402;52.670;6.750;2023-01-31T14:45:54;14.85;;;5.00;;
60292;SDS011;52402;52.670;6.750;2023-01-31T14:48:31;17.33;;;4.80;;
60292;SDS011;52402;52.670;6.750;2023-01-31T14:59:33;15.07;;;5.10;;
60292;SDS011;52402;52.670;6.750;2023-01-31T15:05:01;16.92;;;5.00;;
60292;SDS011;52402;52.670;6.750;2023-01-31T15:18:43;18.63;;;4.75;;
60292;SDS011;52402;52.670;6.750;2023-01-31T15:21:11;23.33;;;5.93;;
60292;SDS011;52402;52.670;6.750;2023-01-31T15:23:42;16.98;;;4.82;;
60292;SDS011;52402;52.670;6.750;2023-01-31T15:26:08;18.50;;;4.68;;
60292;SDS011;52402;52.670;6.750;2023-01-31T15:28:36;19.00;;;4.78;;
60292;SDS011;52402;52.670;6.750;2023-01-31T15:31:11;18.33;;;5.10;;
60292;SDS011;52402;52.670;6.750;2023-01-31T15:33:44;18.92;;;4.65;;
60292;SDS011;52402;52.670;6.750;2023-01-31T15:36:26;20.17;;;4.55;;
60292;SDS011;52402;52.670;6.750;2023-01-31T15:38:59;21.52;;;5.50;;
60292;SDS011;52402;52.670;6.750;2023-01-31T15:44:11;18.13;;;4.20;;
60292;SDS011;52402;52.670;6.750;2023-01-31T15:46:41;19.35;;;5.05;;
60292;SDS011;52402;52.670;6.750;2023-01-31T15:49:41;24.48;;;5.13;;
60292;SDS011;52402;52.670;6.750;2023-01-31T15:54:32;22.13;;;5.40;;
60292;SDS011;52402;52.670;6.750;2023-01-31T15:56:59;20.70;;;5.35;;
60292;SDS011;52402;52.670;6.750;2023-01-31T15:59:26;20.80;;;5.00;;
60292;SDS011;52402;52.670;6.750;2023-01-31T16:01:56;22.10;;;5.00;;
60292;SDS011;52402;52.670;6.750;2023-01-31T16:04:27;23.85;;;5.00;;
60292;SDS011;52402;52.670;6.750;2023-01-31T16:06:53;23.27;;;5.07;;
60292;SDS011;52402;52.670;6.750;2023-01-31T16:09:26;23.88;;;5.43;;
60292;SDS011;52402;52.670;6.750;2023-01-31T16:11:55;24.10;;;5.47;;
60292;SDS011;52402;52.670;6.750;2023-01-31T16:14:22;17.92;;;4.30;;
60292;SDS011;52402;52.670;6.750;2023-01-31T16:16:52;21.30;;;5.10;;
60292;SDS011;52402;52.670;6.750;2023-01-31T16:19:24;21.38;;;5.38;;
60292;SDS011;52402;52.670;6.750;2023-01-31T16:21:56;19.60;;;4.60;;
60292;SDS011;52402;52.670;6.750;2023-01-31T16:24:24;19.90;;;5.10;;
60292;SDS011;52402;52.670;6.750;2023-01-31T16:29:22;21.75;;;5.28;;
60292;SDS011;52402;52.670;6.750;2023-01-31T16:32:19;23.02;;;5.20;;
60292;SDS011;52402;52.670;6.750;2023-01-31T16:34:50;22.80;;;5.40;;
60292;SDS011;52402;52.670;6.750;2023-01-31T16:37:58;21.67;;;4.97;;
60292;SDS011;52402;52.670;6.750;2023-01-31T16:40:25;22.95;;;4.95;;
60292;SDS011;52402;52.670;6.750;2023-01-31T16:43:41;24.33;;;6.57;;
60292;SDS011;52402;52.670;6.750;2023-01-31T16:45:53;22.20;;;5.47;;
60292;SDS011;52402;52.670;6.750;2023-01-31T16:48:21;25.20;;;5.65;;
60292;SDS011;52402;52.670;6.750;2023-01-31T16:50:52;25.83;;;6.93;;
60292;SDS011;52402;52.670;6.750;2023-01-31T16:55:47;24.45;;;6.20;;
60292;SDS011;52402;52.670;6.750;2023-01-31T17:01:30;23.13;;;5.25;;
60292;SDS011;52402;52.670;6.750;2023-01-31T17:04:01;22.30;;;5.80;;
60292;SDS011;52402;52.670;6.750;2023-01-31T17:06:27;21.15;;;5.22;;
60292;SDS011;52402;52.670;6.750;2023-01-31T17:08:53;23.25;;;5.30;;
60292;SDS011;52402;52.670;6.750;2023-01-31T17:11:19;21.52;;;5.20;;
60292;SDS011;52402;52.670;6.750;2023-01-31T17:13:45;25.80;;;5.72;;
60292;SDS011;52402;52.670;6.750;2023-01-31T17:16:28;21.73;;;5.15;;
60292;SDS011;52402;52.670;6.750;2023-01-31T17:18:54;24.55;;;5.60;;
60292;SDS011;52402;52.670;6.750;2023-01-31T17:21:20;22.65;;;5.10;;
60292;SDS011;52402;52.670;6.750;2023-01-31T17:23:47;23.77;;;5.70;;
60292;SDS011;52402;52.670;6.750;2023-01-31T17:26:17;23.25;;;5.50;;
60292;SDS011;52402;52.670;6.750;2023-01-31T17:28:44;24.95;;;5.72;;
60292;SDS011;52402;52.670;6.750;2023-01-31T17:31:20;23.55;;;5.95;;
60292;SDS011;52402;52.670;6.750;2023-01-31T17:33:47;25.88;;;5.55;;